sensor_id;sensor_type;location;lat;lon;timestamp;P1;durP1;ratioP1;P2;durP2;ratioP2
3259;SDS011;68938;48.150;14.004;2023-06-05T00:00:01;7.23;;;6.37;;
3259;SDS011;68938;48.150;14.004;2023-06-05T00:02:29;7.63;;;7.03;;
3259;SDS011;68938;48.150;14.004;2023-06-05T00:04:56;8.00;;;7.20;;
3259;SDS011;68938;48.150;14.004;2023-06-05T00:07:23;9.97;;;6.40;;
3259;SDS011;68938;48.150;14.004;2023-06-05T00:09:50;7.50;;;6.90;;
3259;SDS011;68938;48.150;14.004;2023-06-05T00:12:17;6.90;;;6.40;;
3259;SDS011;68938;48.150;14.004;2023-06-05T00:14:43;8.77;;;6.37;;
3259;SDS011;68938;48.150;14.004;2023-06-05T00:17:10;8.20;;;6.30;;
3259;SDS011;68938;48.150;14.004;2023-06-05T00:19:37;7.33;;;6.63;;
3259;SDS011;68938;48.150;14.004;2023-06-05T00:22:04;6.37;;;5.83;;
3259;SDS011;68938;48.150;14.004;2023-06-05T00:24:31;10.70;;;6.20;;
3259;SDS011;68938;48.150;14.004;2023-06-05T00:26:58;7.87;;;7.17;;
3259;SDS011;68938;48.150;14.004;2023-06-05T00:29:25;6.70;;;6.03;;
3259;SDS011;68938;48.150;14.004;2023-06-05T00:31:52;8.53;;;7.73;;
3259;SDS011;68938;48.150;14.004;2023-06-05T00:34:19;7.73;;;7.03;;
3259;SDS011;68938;48.150;14.004;2023-06-05T00:36:46;6.70;;;6.10;;
3259;SDS011;68938;48.150;14.004;2023-06-05T00:39:13;8.13;;;7.53;;
3259;SDS011;68938;48.150;14.004;2023-06-05T00:41:40;7.10;;;6.40;;
3259;SDS011;68938;48.150;14.004;2023-06-05T00:44:07;7.17;;;6.30;;
3259;SDS011;68938;48.150;14.004;2023-06-05T00:46:34;8.43;;;7.60;;
3259;SDS011;68938;48.150;14.004;2023-06-05T00:49:01;7.17;;;6.50;;
3259;SDS011;68938;48.150;14.004;2023-06-05T00:51:28;9.73;;;7.70;;
3259;SDS011;68938;48.150;14.004;2023-06-05T00:53:55;8.57;;;6.70;;
3259;SDS011;68938;48.150;14.004;2023-06-05T00:56:22;10.43;;;8.13;;
3259;SDS011;68938;48.150;14.004;2023-06-05T00:58:49;8.00;;;7.20;;
3259;SDS011;68938;48.150;14.004;2023-06-05T01:01:16;8.20;;;6.40;;
3259;SDS011;68938;48.150;14.004;2023-06-05T01:03:43;7.33;;;6.73;;
3259;SDS011;68938;48.150;14.004;2023-06-05T01:06:10;6.93;;;6.33;;
3259;SDS011;68938;48.150;14.004;2023-06-05T01:08:37;6.50;;;6.10;;
3259;SDS011;68938;48.150;14.004;2023-06-05T01:11:11;7.20;;;6.47;;
3259;SDS011;68938;48.150;14.004;2023-06-05T01:13:57;6.80;;;6.20;;
3259;SDS011;68938;48.150;14.004;2023-06-05T01:16:51;6.67;;;6.00;;
3259;SDS011;68938;48.150;14.004;2023-06-05T01:19:18;7.70;;;6.90;;
3259;SDS011;68938;48.150;14.004;2023-06-05T01:21:50;7.70;;;7.10;;
3259;SDS011;68938;48.150;14.004;2023-06-05T01:24:18;6.00;;;5.50;;
3259;SDS011;68938;48.150;14.004;2023-06-05T01:26:48;6.30;;;5.90;;
3259;SDS011;68938;48.150;14.004;2023-06-05T01:29:24;7.13;;;6.30;;
3259;SDS011;68938;48.150;14.004;2023-06-05T01:32:02;7.30;;;6.60;;
3259;SDS011;68938;48.150;14.004;2023-06-05T01:34:37;6.83;;;5.63;;
3259;SDS011;68938;48.150;14.004;2023-06-05T01:37:06;6.70;;;6.20;;
3259;SDS011;68938;48.150;14.004;2023-06-05T01:39:33;6.40;;;5.80;;
3259;SDS011;68938;48.150;14.004;2023-06-05T01:42:01;6.00;;;5.50;;
3259;SDS011;68938;48.150;14.004;2023-06-05T01:44:29;6.20;;;5.70;;
3259;SDS011;68938;48.150;14.004;2023-06-05T01:46:56;5.90;;;5.43;;
3259;SDS011;68938;48.150;14.004;2023-06-05T01:49:24;6.63;;;6.10;;
3259;SDS011;68938;48.150;14.004;2023-06-05T01:51:51;6.47;;;5.97;;
3259;SDS011;68938;48.150;14.004;2023-06-05T01:54:18;6.33;;;5.80;;
3259;SDS011;68938;48.150;14.004;2023-06-05T01:56:45;7.30;;;5.63;;
3259;SDS011;68938;48.150;14.004;2023-06-05T01:59:12;6.10;;;5.57;;
3259;SDS011;68938;48.150;14.004;2023-06-05T02:01:39;6.10;;;5.50;;
3259;SDS011;68938;48.150;14.004;2023-06-05T02:04:06;5.90;;;5.40;;
3259;SDS011;68938;48.150;14.004;2023-06-05T02:06:34;7.53;;;6.93;;
3259;SDS011;68938;48.150;14.004;2023-06-05T02:09:01;9.10;;;6.40;;
3259;SDS011;68938;48.150;14.004;2023-06-05T02:11:28;9.13;;;5.80;;
3259;SDS011;68938;48.150;14.004;2023-06-05T02:13:55;5.90;;;5.37;;
3259;SDS011;68938;48.150;14.004;2023-06-05T02:16:22;6.47;;;5.93;;
3259;SDS011;68938;48.150;14.004;2023-06-05T02:18:49;10.40;;;6.37;;
3259;SDS011;68938;48.150;14.004;2023-06-05T02:21:16;6.37;;;5.87;;
3259;SDS011;68938;48.150;14.004;2023-06-05T02:23:43;6.77;;;6.10;;
3259;SDS011;68938;48.150;14.004;2023-06-05T02:26:10;6.83;;;5.97;;
3259;SDS011;68938;48.150;14.004;2023-06-05T02:28:37;8.53;;;6.80;;
3259;SDS011;68938;48.150;14.004;2023-06-05T02:31:04;6.00;;;5.50;;
3259;SDS011;68938;48.150;14.004;2023-06-05T02:33:31;6.50;;;6.00;;
3259;SDS011;68938;48.150;14.004;2023-06-05T02:35:58;6.60;;;6.03;;
3259;SDS011;68938;48.150;14.004;2023-06-05T02:38:24;7.73;;;6.80;;
3259;SDS011;68938;48.150;14.004;2023-06-05T02:40:51;5.77;;;5.33;;
3259;SDS011;68938;48.150;14.004;2023-06-05T02:43:18;6.13;;;5.53;;
3259;SDS011;68938;48.150;14.004;2023-06-05T02:45:45;6.00;;;5.50;;
3259;SDS011;68938;48.150;14.004;2023-06-05T02:48:12;6.70;;;6.20;;
3259;SDS011;68938;48.150;14.004;2023-06-05T02:50:39;7.20;;;6.60;;
3259;SDS011;68938;48.150;14.004;2023-06-05T02:53:06;6.07;;;5.50;;
3259;SDS011;68938;48.150;14.004;2023-06-05T02:55:33;6.03;;;5.50;;
3259;SDS011;68938;48.150;14.004;2023-06-05T02:58:00;6.40;;;5.83;;
3259;SDS011;68938;48.150;14.004;2023-06-05T03:00:27;5.83;;;5.47;;
3259;SDS011;68938;48.150;14.004;2023-06-05T03:02:54;6.80;;;5.93;;
3259;SDS011;68938;48.150;14.004;2023-06-05T03:05:21;6.10;;;5.70;;
3259;SDS011;68938;48.150;14.004;2023-06-05T03:07:48;6.40;;;5.80;;
3259;SDS011;68938;48.150;14.004;2023-06-05T03:10:15;6.23;;;5.33;;
3259;SDS011;68938;48.150;14.004;2023-06-05T03:12:41;6.50;;;5.90;;
3259;SDS011;68938;48.150;14.004;2023-06-05T03:15:08;6.80;;;6.30;;
3259;SDS011;68938;48.150;14.004;2023-06-05T03:17:36;6.73;;;6.23;;
3259;SDS011;68938;48.150;14.004;2023-06-05T03:20:03;6.70;;;6.10;;
3259;SDS011;68938;48.150;14.004;2023-06-05T03:22:31;6.40;;;5.90;;
3259;SDS011;68938;48.150;14.004;2023-06-05T03:24:58;9.57;;;6.17;;
3259;SDS011;68938;48.150;14.004;2023-06-05T03:27:25;6.50;;;5.00;;
3259;SDS011;68938;48.150;14.004;2023-06-05T03:29:52;6.27;;;5.77;;
3259;SDS011;68938;48.150;14.004;2023-06-05T03:32:19;7.03;;;6.37;;
3259;SDS011;68938;48.150;14.004;2023-06-05T03:34:46;6.20;;;5.20;;
3259;SDS011;68938;48.150;14.004;2023-06-05T03:37:12;6.00;;;5.60;;
3259;SDS011;68938;48.150;14.004;2023-06-05T03:39:39;6.47;;;5.93;;
3259;SDS011;68938;48.150;14.004;2023-06-05T03:42:06;6.40;;;5.90;;
3259;SDS011;68938;48.150;14.004;2023-06-05T03:44:33;6.97;;;6.27;;
3259;SDS011;68938;48.150;14.004;2023-06-05T03:47:00;6.37;;;5.90;;
3259;SDS011;68938;48.150;14.004;2023-06-05T03:49:27;6.23;;;5.63;;
3259;SDS011;68938;48.150;14.004;2023-06-05T03:51:55;6.00;;;5.60;;
3259;SDS011;68938;48.150;14.004;2023-06-05T03:54:22;6.33;;;5.73;;
3259;SDS011;68938;48.150;14.004;2023-06-05T03:56:49;6.40;;;5.90;;
3259;SDS011;68938;48.150;14.004;2023-06-05T03:59:16;5.90;;;5.40;;
3259;SDS011;68938;48.150;14.004;2023-06-05T04:01:43;6.80;;;6.20;;
3259;SDS011;68938;48.150;14.004;2023-06-05T04:04:10;6.63;;;6.03;;
3259;SDS011;68938;48.150;14.004;2023-06-05T04:06:37;6.00;;;5.60;;
3259;SDS011;68938;48.150;14.004;2023-06-05T04:09:04;6.77;;;6.20;;
3259;SDS011;68938;48.150;14.004;2023-06-05T04:11:31;6.77;;;6.27;;
3259;SDS011;68938;48.150;14.004;2023-06-05T04:13:58;6.10;;;5.70;;
3259;SDS011;68938;48.150;14.004;2023-06-05T04:16:25;6.00;;;5.60;;
3259;SDS011;68938;48.150;14.004;2023-06-05T04:18:52;6.50;;;6.00;;
3259;SDS011;68938;48.150;14.004;2023-06-05T04:21:19;6.20;;;5.70;;
3259;SDS011;68938;48.150;14.004;2023-06-05T04:23:45;7.17;;;6.47;;
3259;SDS011;68938;48.150;14.004;2023-06-05T04:26:12;6.87;;;6.27;;
3259;SDS011;68938;48.150;14.004;2023-06-05T04:28:39;7.27;;;6.73;;
3259;SDS011;68938;48.150;14.004;2023-06-05T04:31:06;7.67;;;7.00;;
3259;SDS011;68938;48.150;14.004;2023-06-05T04:33:34;7.67;;;6.97;;
3259;SDS011;68938;48.150;14.004;2023-06-05T04:36:00;6.60;;;6.10;;
3259;SDS011;68938;48.150;14.004;2023-06-05T04:38:27;9.70;;;6.50;;
3259;SDS011;68938;48.150;14.004;2023-06-05T04:40:54;7.33;;;6.63;;
3259;SDS011;68938;48.150;14.004;2023-06-05T04:43:21;7.30;;;6.00;;
3259;SDS011;68938;48.150;14.004;2023-06-05T04:45:48;8.07;;;7.40;;
3259;SDS011;68938;48.150;14.004;2023-06-05T04:48:15;7.60;;;6.83;;
3259;SDS011;68938;48.150;14.004;2023-06-05T04:50:42;6.40;;;5.90;;
3259;SDS011;68938;48.150;14.004;2023-06-05T04:53:09;7.73;;;7.03;;
3259;SDS011;68938;48.150;14.004;2023-06-05T04:55:36;7.30;;;6.80;;
3259;SDS011;68938;48.150;14.004;2023-06-05T04:58:03;8.13;;;7.27;;
3259;SDS011;68938;48.150;14.004;2023-06-05T05:00:29;7.50;;;7.00;;
3259;SDS011;68938;48.150;14.004;2023-06-05T05:02:57;7.90;;;7.10;;
3259;SDS011;68938;48.150;14.004;2023-06-05T05:05:24;8.00;;;7.40;;
3259;SDS011;68938;48.150;14.004;2023-06-05T05:07:51;8.03;;;7.33;;
3259;SDS011;68938;48.150;14.004;2023-06-05T05:10:22;7.73;;;7.13;;
3259;SDS011;68938;48.150;14.004;2023-06-05T05:12:49;7.90;;;7.30;;
3259;SDS011;68938;48.150;14.004;2023-06-05T05:15:16;7.93;;;7.20;;
3259;SDS011;68938;48.150;14.004;2023-06-05T05:17:42;7.90;;;7.20;;
3259;SDS011;68938;48.150;14.004;2023-06-05T05:20:09;8.10;;;7.40;;
3259;SDS011;68938;48.150;14.004;2023-06-05T05:22:36;9.17;;;7.30;;
3259;SDS011;68938;48.150;14.004;2023-06-05T05:25:04;8.00;;;7.07;;
3259;SDS011;68938;48.150;14.004;2023-06-05T05:27:32;7.60;;;6.90;;
3259;SDS011;68938;48.150;14.004;2023-06-05T05:29:59;7.10;;;6.50;;
3259;SDS011;68938;48.150;14.004;2023-06-05T05:32:26;8.90;;;7.40;;
3259;SDS011;68938;48.150;14.004;2023-06-05T05:34:53;7.57;;;6.97;;
3259;SDS011;68938;48.150;14.004;2023-06-05T05:37:20;6.97;;;6.30;;
3259;SDS011;68938;48.150;14.004;2023-06-05T05:39:47;8.17;;;7.43;;
3259;SDS011;68938;48.150;14.004;2023-06-05T05:42:14;8.37;;;7.27;;
3259;SDS011;68938;48.150;14.004;2023-06-05T05:44:41;8.30;;;7.60;;
3259;SDS011;68938;48.150;14.004;2023-06-05T05:47:08;7.90;;;7.20;;
3259;SDS011;68938;48.150;14.004;2023-06-05T05:49:35;8.33;;;7.43;;
3259;SDS011;68938;48.150;14.004;2023-06-05T05:52:02;7.77;;;6.97;;
3259;SDS011;68938;48.150;14.004;2023-06-05T05:54:29;9.07;;;7.67;;
3259;SDS011;68938;48.150;14.004;2023-06-05T05:56:56;7.47;;;6.73;;
3259;SDS011;68938;48.150;14.004;2023-06-05T05:59:23;9.50;;;7.27;;
3259;SDS011;68938;48.150;14.004;2023-06-05T06:01:50;10.10;;;8.00;;
3259;SDS011;68938;48.150;14.004;2023-06-05T06:04:17;8.53;;;7.90;;
3259;SDS011;68938;48.150;14.004;2023-06-05T06:06:44;7.73;;;7.03;;
3259;SDS011;68938;48.150;14.004;2023-06-05T06:09:11;7.60;;;6.80;;
3259;SDS011;68938;48.150;14.004;2023-06-05T06:11:38;7.50;;;6.90;;
3259;SDS011;68938;48.150;14.004;2023-06-05T06:14:05;7.73;;;7.10;;
3259;SDS011;68938;48.150;14.004;2023-06-05T06:16:32;8.10;;;7.37;;
3259;SDS011;68938;48.150;14.004;2023-06-05T06:18:59;10.33;;;7.27;;
3259;SDS011;68938;48.150;14.004;2023-06-05T06:21:26;7.67;;;7.03;;
3259;SDS011;68938;48.150;14.004;2023-06-05T06:23:53;7.53;;;6.83;;
3259;SDS011;68938;48.150;14.004;2023-06-05T06:26:20;7.83;;;7.23;;
3259;SDS011;68938;48.150;14.004;2023-06-05T06:28:46;7.77;;;7.10;;
3259;SDS011;68938;48.150;14.004;2023-06-05T06:31:13;7.53;;;6.90;;
3259;SDS011;68938;48.150;14.004;2023-06-05T06:33:40;7.60;;;6.97;;
3259;SDS011;68938;48.150;14.004;2023-06-05T06:36:07;7.50;;;7.00;;
3259;SDS011;68938;48.150;14.004;2023-06-05T06:38:34;8.70;;;7.93;;
3259;SDS011;68938;48.150;14.004;2023-06-05T06:41:01;10.07;;;6.47;;
3259;SDS011;68938;48.150;14.004;2023-06-05T06:43:28;8.20;;;7.40;;
3259;SDS011;68938;48.150;14.004;2023-06-05T06:45:55;8.63;;;7.93;;
3259;SDS011;68938;48.150;14.004;2023-06-05T06:48:22;8.43;;;7.83;;
3259;SDS011;68938;48.150;14.004;2023-06-05T06:50:49;8.33;;;7.73;;
3259;SDS011;68938;48.150;14.004;2023-06-05T06:53:16;7.90;;;7.30;;
3259;SDS011;68938;48.150;14.004;2023-06-05T06:55:43;7.90;;;7.30;;
3259;SDS011;68938;48.150;14.004;2023-06-05T06:58:10;7.00;;;6.60;;
3259;SDS011;68938;48.150;14.004;2023-06-05T07:00:37;7.90;;;7.30;;
3259;SDS011;68938;48.150;14.004;2023-06-05T07:03:04;9.10;;;8.07;;
3259;SDS011;68938;48.150;14.004;2023-06-05T07:05:32;8.33;;;7.53;;
3259;SDS011;68938;48.150;14.004;2023-06-05T07:07:59;7.87;;;7.07;;
3259;SDS011;68938;48.150;14.004;2023-06-05T07:10:26;8.77;;;8.07;;
3259;SDS011;68938;48.150;14.004;2023-06-05T07:12:56;8.93;;;8.13;;
3259;SDS011;68938;48.150;14.004;2023-06-05T07:15:22;9.10;;;8.40;;
3259;SDS011;68938;48.150;14.004;2023-06-05T07:17:49;7.33;;;6.83;;
3259;SDS011;68938;48.150;14.004;2023-06-05T07:20:16;10.13;;;8.40;;
3259;SDS011;68938;48.150;14.004;2023-06-05T07:22:44;8.00;;;7.50;;
3259;SDS011;68938;48.150;14.004;2023-06-05T07:25:11;8.23;;;7.63;;
3259;SDS011;68938;48.150;14.004;2023-06-05T07:27:38;9.80;;;8.17;;
3259;SDS011;68938;48.150;14.004;2023-06-05T07:30:06;9.83;;;7.77;;
3259;SDS011;68938;48.150;14.004;2023-06-05T07:32:34;10.23;;;8.30;;
3259;SDS011;68938;48.150;14.004;2023-06-05T07:35:01;10.40;;;7.80;;
3259;SDS011;68938;48.150;14.004;2023-06-05T07:37:28;9.10;;;8.30;;
3259;SDS011;68938;48.150;14.004;2023-06-05T07:39:55;9.53;;;8.80;;
3259;SDS011;68938;48.150;14.004;2023-06-05T07:42:22;9.50;;;8.70;;
3259;SDS011;68938;48.150;14.004;2023-06-05T07:44:49;8.43;;;7.73;;
3259;SDS011;68938;48.150;14.004;2023-06-05T07:47:15;8.20;;;7.60;;
3259;SDS011;68938;48.150;14.004;2023-06-05T07:49:42;8.93;;;8.33;;
3259;SDS011;68938;48.150;14.004;2023-06-05T07:52:09;9.43;;;8.53;;
3259;SDS011;68938;48.150;14.004;2023-06-05T07:54:36;8.93;;;8.10;;
3259;SDS011;68938;48.150;14.004;2023-06-05T07:57:04;10.13;;;8.97;;
3259;SDS011;68938;48.150;14.004;2023-06-05T07:59:31;8.57;;;7.73;;
3259;SDS011;68938;48.150;14.004;2023-06-05T08:01:58;8.53;;;7.90;;
3259;SDS011;68938;48.150;14.004;2023-06-05T08:04:25;9.00;;;8.30;;
3259;SDS011;68938;48.150;14.004;2023-06-05T08:06:53;9.60;;;8.80;;
3259;SDS011;68938;48.150;14.004;2023-06-05T08:09:20;9.63;;;8.83;;
3259;SDS011;68938;48.150;14.004;2023-06-05T08:11:46;10.10;;;9.07;;
3259;SDS011;68938;48.150;14.004;2023-06-05T08:14:13;8.27;;;7.70;;
3259;SDS011;68938;48.150;14.004;2023-06-05T08:16:40;10.57;;;9.63;;
3259;SDS011;68938;48.150;14.004;2023-06-05T08:19:08;10.10;;;9.37;;
3259;SDS011;68938;48.150;14.004;2023-06-05T08:21:35;9.53;;;8.73;;
3259;SDS011;68938;48.150;14.004;2023-06-05T08:24:02;10.50;;;9.60;;
3259;SDS011;68938;48.150;14.004;2023-06-05T08:26:30;12.90;;;9.93;;
3259;SDS011;68938;48.150;14.004;2023-06-05T08:28:57;9.97;;;9.17;;
3259;SDS011;68938;48.150;14.004;2023-06-05T08:31:26;9.47;;;8.53;;
3259;SDS011;68938;48.150;14.004;2023-06-05T08:33:53;9.35;;;8.65;;
3259;SDS011;68938;48.150;14.004;2023-06-05T08:36:20;10.67;;;9.87;;
3259;SDS011;68938;48.150;14.004;2023-06-05T08:38:47;9.53;;;8.70;;
3259;SDS011;68938;48.150;14.004;2023-06-05T08:41:14;9.67;;;8.87;;
3259;SDS011;68938;48.150;14.004;2023-06-05T08:43:41;9.60;;;8.70;;
3259;SDS011;68938;48.150;14.004;2023-06-05T08:46:09;9.47;;;8.80;;
3259;SDS011;68938;48.150;14.004;2023-06-05T08:48:39;10.10;;;9.30;;
3259;SDS011;68938;48.150;14.004;2023-06-05T08:51:15;9.73;;;9.03;;
3259;SDS011;68938;48.150;14.004;2023-06-05T08:53:51;10.77;;;9.87;;
3259;SDS011;68938;48.150;14.004;2023-06-05T08:56:24;9.67;;;8.97;;
3259;SDS011;68938;48.150;14.004;2023-06-05T08:58:51;9.53;;;8.80;;
3259;SDS011;68938;48.150;14.004;2023-06-05T09:01:21;9.40;;;8.80;;
3259;SDS011;68938;48.150;14.004;2023-06-05T09:03:48;9.30;;;8.50;;
3259;SDS011;68938;48.150;14.004;2023-06-05T09:06:16;8.93;;;8.33;;
3259;SDS011;68938;48.150;14.004;2023-06-05T09:08:43;10.43;;;9.20;;
3259;SDS011;68938;48.150;14.004;2023-06-05T09:11:28;10.27;;;9.43;;
3259;SDS011;68938;48.150;14.004;2023-06-05T09:13:58;9.40;;;8.50;;
3259;SDS011;68938;48.150;14.004;2023-06-05T09:16:42;9.50;;;8.73;;
3259;SDS011;68938;48.150;14.004;2023-06-05T09:19:10;8.53;;;7.83;;
3259;SDS011;68938;48.150;14.004;2023-06-05T09:21:39;9.13;;;8.43;;
3259;SDS011;68938;48.150;14.004;2023-06-05T09:24:15;9.27;;;8.47;;
3259;SDS011;68938;48.150;14.004;2023-06-05T09:26:53;8.17;;;7.57;;
3259;SDS011;68938;48.150;14.004;2023-06-05T09:32:09;9.20;;;8.50;;
3259;SDS011;68938;48.150;14.004;2023-06-05T09:34:43;9.80;;;7.90;;
3259;SDS011;68938;48.150;14.004;2023-06-05T09:37:11;7.90;;;7.40;;
3259;SDS011;68938;48.150;14.004;2023-06-05T09:39:40;8.70;;;7.93;;
3259;SDS011;68938;48.150;14.004;2023-06-05T09:42:08;8.93;;;8.33;;
3259;SDS011;68938;48.150;14.004;2023-06-05T09:44:35;7.57;;;7.07;;
3259;SDS011;68938;48.150;14.004;2023-06-05T09:47:04;8.70;;;8.00;;
3259;SDS011;68938;48.150;14.004;2023-06-05T09:49:46;9.37;;;8.53;;
3259;SDS011;68938;48.150;14.004;2023-06-05T09:52:13;7.37;;;6.90;;
3259;SDS011;68938;48.150;14.004;2023-06-05T09:54:41;9.10;;;7.23;;
3259;SDS011;68938;48.150;14.004;2023-06-05T09:57:12;7.90;;;7.20;;
3259;SDS011;68938;48.150;14.004;2023-06-05T10:02:23;8.53;;;7.93;;
3259;SDS011;68938;48.150;14.004;2023-06-05T10:04:59;8.73;;;8.00;;
3259;SDS011;68938;48.150;14.004;2023-06-05T10:07:29;8.47;;;7.67;;
3259;SDS011;68938;48.150;14.004;2023-06-05T10:09:57;9.17;;;8.30;;
3259;SDS011;68938;48.150;14.004;2023-06-05T10:12:25;7.73;;;7.13;;
3259;SDS011;68938;48.150;14.004;2023-06-05T10:14:54;8.27;;;7.67;;
3259;SDS011;68938;48.150;14.004;2023-06-05T10:17:21;7.23;;;6.67;;
3259;SDS011;68938;48.150;14.004;2023-06-05T10:19:50;8.83;;;8.00;;
3259;SDS011;68938;48.150;14.004;2023-06-05T10:22:17;7.77;;;7.17;;
3259;SDS011;68938;48.150;14.004;2023-06-05T10:24:46;6.53;;;6.03;;
3259;SDS011;68938;48.150;14.004;2023-06-05T10:33:15;8.23;;;7.67;;
3259;SDS011;68938;48.150;14.004;2023-06-05T10:36:22;8.83;;;8.13;;
3259;SDS011;68938;48.150;14.004;2023-06-05T10:38:54;8.27;;;7.70;;
3259;SDS011;68938;48.150;14.004;2023-06-05T10:41:23;8.67;;;7.93;;
3259;SDS011;68938;48.150;14.004;2023-06-05T10:43:52;8.70;;;8.00;;
3259;SDS011;68938;48.150;14.004;2023-06-05T10:51:39;10.03;;;7.83;;
3259;SDS011;68938;48.150;14.004;2023-06-05T10:54:08;7.43;;;6.83;;
3259;SDS011;68938;48.150;14.004;2023-06-05T10:59:31;8.17;;;7.47;;
3259;SDS011;68938;48.150;14.004;2023-06-05T11:07:36;8.70;;;8.00;;
3259;SDS011;68938;48.150;14.004;2023-06-05T11:10:17;8.37;;;7.67;;
3259;SDS011;68938;48.150;14.004;2023-06-05T11:15:15;7.90;;;7.40;;
3259;SDS011;68938;48.150;14.004;2023-06-05T11:17:48;9.50;;;6.70;;
3259;SDS011;68938;48.150;14.004;2023-06-05T11:27:49;8.40;;;7.80;;
3259;SDS011;68938;48.150;14.004;2023-06-05T11:30:22;6.93;;;6.43;;
3259;SDS011;68938;48.150;14.004;2023-06-05T11:33:13;7.70;;;6.60;;
3259;SDS011;68938;48.150;14.004;2023-06-05T11:35:46;8.50;;;7.70;;
3259;SDS011;68938;48.150;14.004;2023-06-05T11:38:18;8.33;;;7.73;;
3259;SDS011;68938;48.150;14.004;2023-06-05T11:40:50;7.80;;;7.27;;
3259;SDS011;68938;48.150;14.004;2023-06-05T11:43:19;7.07;;;6.67;;
3259;SDS011;68938;48.150;14.004;2023-06-05T11:48:22;7.43;;;6.97;;
3259;SDS011;68938;48.150;14.004;2023-06-05T11:50:55;6.43;;;5.90;;
3259;SDS011;68938;48.150;14.004;2023-06-05T11:53:22;7.53;;;7.03;;
3259;SDS011;68938;48.150;14.004;2023-06-05T11:55:51;7.53;;;6.90;;
3259;SDS011;68938;48.150;14.004;2023-06-05T11:58:25;7.30;;;6.60;;
3259;SDS011;68938;48.150;14.004;2023-06-05T12:01:15;8.23;;;7.50;;
3259;SDS011;68938;48.150;14.004;2023-06-05T12:03:46;9.60;;;8.10;;
3259;SDS011;68938;48.150;14.004;2023-06-05T12:06:14;8.33;;;7.73;;
3259;SDS011;68938;48.150;14.004;2023-06-05T12:08:42;8.60;;;8.00;;
3259;SDS011;68938;48.150;14.004;2023-06-05T12:11:23;9.47;;;8.83;;
3259;SDS011;68938;48.150;14.004;2023-06-05T12:13:53;8.87;;;8.20;;
3259;SDS011;68938;48.150;14.004;2023-06-05T12:16:35;8.20;;;7.70;;
3259;SDS011;68938;48.150;14.004;2023-06-05T12:19:18;9.30;;;8.40;;
3259;SDS011;68938;48.150;14.004;2023-06-05T12:21:49;8.60;;;7.80;;
3259;SDS011;68938;48.150;14.004;2023-06-05T12:24:26;15.00;;;7.90;;
3259;SDS011;68938;48.150;14.004;2023-06-05T12:31:59;9.03;;;8.20;;
3259;SDS011;68938;48.150;14.004;2023-06-05T12:34:45;9.20;;;8.60;;
3259;SDS011;68938;48.150;14.004;2023-06-05T12:37:26;10.83;;;9.77;;
3259;SDS011;68938;48.150;14.004;2023-06-05T12:39:53;10.70;;;9.90;;
3259;SDS011;68938;48.150;14.004;2023-06-05T12:42:20;11.00;;;10.20;;
3259;SDS011;68938;48.150;14.004;2023-06-05T12:44:47;10.50;;;9.70;;
3259;SDS011;68938;48.150;14.004;2023-06-05T12:47:16;11.53;;;10.50;;
3259;SDS011;68938;48.150;14.004;2023-06-05T12:49:43;11.03;;;10.13;;
3259;SDS011;68938;48.150;14.004;2023-06-05T12:52:10;12.03;;;10.67;;
3259;SDS011;68938;48.150;14.004;2023-06-05T12:54:37;12.50;;;11.40;;
3259;SDS011;68938;48.150;14.004;2023-06-05T12:57:04;11.37;;;10.20;;
3259;SDS011;68938;48.150;14.004;2023-06-05T12:59:32;11.17;;;10.20;;
3259;SDS011;68938;48.150;14.004;2023-06-05T13:02:00;10.90;;;10.00;;
3259;SDS011;68938;48.150;14.004;2023-06-05T13:04:27;11.47;;;10.47;;
3259;SDS011;68938;48.150;14.004;2023-06-05T13:06:54;12.33;;;11.13;;
3259;SDS011;68938;48.150;14.004;2023-06-05T13:09:21;11.30;;;10.40;;
3259;SDS011;68938;48.150;14.004;2023-06-05T13:11:48;11.47;;;10.67;;
3259;SDS011;68938;48.150;14.004;2023-06-05T13:14:15;12.77;;;11.50;;
3259;SDS011;68938;48.150;14.004;2023-06-05T13:16:42;12.37;;;11.20;;
3259;SDS011;68938;48.150;14.004;2023-06-05T13:19:09;12.73;;;11.63;;
3259;SDS011;68938;48.150;14.004;2023-06-05T13:21:36;13.13;;;11.93;;
3259;SDS011;68938;48.150;14.004;2023-06-05T13:24:03;14.37;;;12.90;;
3259;SDS011;68938;48.150;14.004;2023-06-05T13:26:30;14.00;;;12.70;;
3259;SDS011;68938;48.150;14.004;2023-06-05T13:28:56;13.97;;;12.87;;
3259;SDS011;68938;48.150;14.004;2023-06-05T13:31:23;13.67;;;12.47;;
3259;SDS011;68938;48.150;14.004;2023-06-05T13:33:50;13.73;;;12.53;;
3259;SDS011;68938;48.150;14.004;2023-06-05T13:36:17;16.83;;;13.53;;
3259;SDS011;68938;48.150;14.004;2023-06-05T13:38:44;16.17;;;14.47;;
3259;SDS011;68938;48.150;14.004;2023-06-05T13:41:11;15.83;;;13.43;;
3259;SDS011;68938;48.150;14.004;2023-06-05T13:43:38;13.60;;;12.43;;
3259;SDS011;68938;48.150;14.004;2023-06-05T13:46:05;14.17;;;13.07;;
3259;SDS011;68938;48.150;14.004;2023-06-05T13:48:32;15.30;;;13.90;;
3259;SDS011;68938;48.150;14.004;2023-06-05T13:50:59;15.70;;;14.30;;
3259;SDS011;68938;48.150;14.004;2023-06-05T13:53:27;15.40;;;13.93;;
3259;SDS011;68938;48.150;14.004;2023-06-05T13:55:53;15.90;;;14.40;;
3259;SDS011;68938;48.150;14.004;2023-06-05T13:58:20;17.70;;;16.30;;
3259;SDS011;68938;48.150;14.004;2023-06-05T14:00:47;21.60;;;16.97;;
3259;SDS011;68938;48.150;14.004;2023-06-05T14:03:14;15.87;;;14.47;;
3259;SDS011;68938;48.150;14.004;2023-06-05T14:05:41;16.90;;;15.20;;
3259;SDS011;68938;48.150;14.004;2023-06-05T14:08:08;17.13;;;15.50;;
3259;SDS011;68938;48.150;14.004;2023-06-05T14:10:35;15.10;;;13.83;;
3259;SDS011;68938;48.150;14.004;2023-06-05T14:13:02;14.43;;;13.03;;
3259;SDS011;68938;48.150;14.004;2023-06-05T14:15:30;16.20;;;12.80;;
3259;SDS011;68938;48.150;14.004;2023-06-05T14:18:00;15.07;;;13.80;;
3259;SDS011;68938;48.150;14.004;2023-06-05T14:20:30;15.17;;;13.93;;
3259;SDS011;68938;48.150;14.004;2023-06-05T14:23:01;14.93;;;13.60;;
3259;SDS011;68938;48.150;14.004;2023-06-05T14:25:28;13.97;;;12.67;;
3259;SDS011;68938;48.150;14.004;2023-06-05T14:27:57;12.63;;;11.43;;
3259;SDS011;68938;48.150;14.004;2023-06-05T14:30:24;14.57;;;13.43;;
3259;SDS011;68938;48.150;14.004;2023-06-05T14:32:52;14.50;;;13.30;;
3259;SDS011;68938;48.150;14.004;2023-06-05T14:35:19;14.70;;;13.30;;
3259;SDS011;68938;48.150;14.004;2023-06-05T14:37:47;12.73;;;11.77;;
3259;SDS011;68938;48.150;14.004;2023-06-05T14:40:14;13.67;;;12.47;;
3259;SDS011;68938;48.150;14.004;2023-06-05T14:42:41;13.87;;;12.67;;
3259;SDS011;68938;48.150;14.004;2023-06-05T14:45:09;14.17;;;12.87;;
3259;SDS011;68938;48.150;14.004;2023-06-05T14:47:36;15.43;;;14.00;;
3259;SDS011;68938;48.150;14.004;2023-06-05T14:50:05;16.60;;;15.00;;
3259;SDS011;68938;48.150;14.004;2023-06-05T14:52:33;15.60;;;14.20;;
3259;SDS011;68938;48.150;14.004;2023-06-05T14:55:01;13.20;;;12.07;;
3259;SDS011;68938;48.150;14.004;2023-06-05T14:57:31;16.00;;;14.17;;
3259;SDS011;68938;48.150;14.004;2023-06-05T14:59:58;15.80;;;14.40;;
3259;SDS011;68938;48.150;14.004;2023-06-05T15:02:25;14.17;;;12.90;;
3259;SDS011;68938;48.150;14.004;2023-06-05T15:04:52;13.03;;;11.93;;
3259;SDS011;68938;48.150;14.004;2023-06-05T15:07:20;12.17;;;11.07;;
3259;SDS011;68938;48.150;14.004;2023-06-05T15:09:47;9.30;;;8.40;;
3259;SDS011;68938;48.150;14.004;2023-06-05T15:12:14;8.20;;;7.60;;
3259;SDS011;68938;48.150;14.004;2023-06-05T15:14:41;7.10;;;6.67;;
3259;SDS011;68938;48.150;14.004;2023-06-05T15:17:09;7.10;;;6.57;;
3259;SDS011;68938;48.150;14.004;2023-06-05T15:19:36;7.20;;;6.60;;
3259;SDS011;68938;48.150;14.004;2023-06-05T15:22:20;8.10;;;7.37;;
3259;SDS011;68938;48.150;14.004;2023-06-05T15:24:47;9.03;;;8.23;;
3259;SDS011;68938;48.150;14.004;2023-06-05T15:27:14;10.07;;;9.17;;
3259;SDS011;68938;48.150;14.004;2023-06-05T15:29:41;9.13;;;8.33;;
3259;SDS011;68938;48.150;14.004;2023-06-05T15:32:08;9.80;;;8.80;;